createdAt,value
2023-04-24T00:01:43.735Z,99417.53
2023-04-24T00:04:48.124Z,99421.13
2023-04-24T00:07:49.570Z,99422.25
2023-04-24T00:10:51.151Z,99421.66
2023-04-24T00:13:52.545Z,99421.94
2023-04-24T00:16:54.020Z,99413.91
2023-04-24T00:20:05.596Z,99410.31
2023-04-24T00:23:07.671Z,99410.50
2023-04-24T00:26:09.092Z,99409.38
2023-04-24T00:29:10.546Z,99402.56
2023-04-24T00:32:12.221Z,99399.25
2023-04-24T00:35:13.909Z,99393.13
2023-04-24T00:38:15.451Z,99401.06
2023-04-24T00:41:17.322Z,99409.81
2023-04-24T00:44:18.793Z,99411.13
2023-04-24T00:47:20.971Z,99416.41
2023-04-24T00:50:24.925Z,99412.13
2023-04-24T00:53:26.349Z,99405.56
2023-04-24T00:56:28.647Z,99416.41
2023-04-24T00:59:30.335Z,99409.41
2023-04-24T01:02:35.340Z,99411.38
2023-04-24T01:05:37.224Z,99404.78
2023-04-24T01:08:39.550Z,99407.44
2023-04-24T01:11:42.994Z,99401.50
2023-04-24T01:14:45.808Z,99398.66
2023-04-24T01:17:47.632Z,99399.50
2023-04-24T01:20:53.905Z,99402.94
2023-04-24T01:23:56.235Z,99390.56
2023-04-24T01:26:57.818Z,99397.81
2023-04-24T01:29:59.394Z,99396.28
2023-04-24T01:33:01.401Z,99396.56
2023-04-24T01:36:03.190Z,99390.41
2023-04-24T01:39:04.713Z,99396.81
2023-04-24T01:42:06.846Z,99395.63
2023-04-24T01:45:11.908Z,99394.91
2023-04-24T01:48:14.147Z,99390.50
2023-04-24T01:51:15.528Z,99385.91
2023-04-24T01:54:16.924Z,99381.19
2023-04-24T01:57:18.382Z,99383.34
2023-04-24T02:00:19.779Z,99381.69
2023-04-24T02:03:21.306Z,99380.38
2023-04-24T02:06:24.715Z,99372.53
2023-04-24T02:09:28.052Z,99376.97
2023-04-24T02:12:29.476Z,99376.19
2023-04-24T02:15:30.950Z,99385.03
2023-04-24T02:18:32.324Z,99375.31
2023-04-24T02:21:33.956Z,99367.75
2023-04-24T02:24:36.429Z,99368.00
2023-04-24T02:27:37.821Z,99377.88
2023-04-24T02:30:40.997Z,99370.03
2023-04-24T02:33:42.414Z,99377.31
2023-04-24T02:36:43.821Z,99380.81
2023-04-24T02:39:45.317Z,99382.50
2023-04-24T02:42:46.786Z,99373.72
2023-04-24T02:45:48.268Z,99373.38
2023-04-24T02:48:49.670Z,99376.28
2023-04-24T02:51:51.083Z,99373.53
2023-04-24T02:54:52.523Z,99382.31
2023-04-24T02:57:53.907Z,99383.19
2023-04-24T03:00:56.702Z,99382.50
2023-04-24T03:03:59.118Z,99392.38
2023-04-24T03:07:02.116Z,99401.09
2023-04-24T03:10:04.001Z,99406.19
2023-04-24T03:13:05.395Z,99400.22
2023-04-24T03:16:06.851Z,99438.00
2023-04-24T03:19:08.332Z,99434.59
2023-04-24T03:22:16.836Z,99439.63
2023-04-24T03:25:18.812Z,99444.19
2023-04-24T03:28:20.626Z,99444.69
2023-04-24T03:31:32.261Z,99437.63
2023-04-24T03:34:33.836Z,99442.91
2023-04-24T03:37:35.357Z,99439.25
2023-04-24T03:40:55.680Z,99432.69
2023-04-24T03:44:15.895Z,99434.41
2023-04-24T03:47:17.869Z,99436.44
2023-04-24T03:50:21.389Z,99448.53
2023-04-24T03:53:23.220Z,99443.44
2023-04-24T03:56:25.627Z,99439.41
2023-04-24T03:59:27.863Z,99461.94
2023-04-24T04:02:42.254Z,99485.06
2023-04-24T04:05:44.771Z,99489.09
2023-04-24T04:08:46.191Z,99491.75
2023-04-24T04:11:48.326Z,99483.75
2023-04-24T04:14:50.005Z,99495.97
2023-04-24T04:17:51.884Z,99486.56
2023-04-24T04:20:53.341Z,99498.72
2023-04-24T04:23:54.956Z,99505.84
2023-04-24T04:27:04.413Z,99507.88
2023-04-24T04:30:11.494Z,99502.75
2023-04-24T04:33:24.396Z,99514.84
2023-04-24T04:36:26.883Z,99532.03
2023-04-24T04:39:36.281Z,99534.19
2023-04-24T04:42:41.366Z,99539.03
2023-04-24T04:45:44.203Z,99546.72
2023-04-24T04:48:58.174Z,99550.50
2023-04-24T04:51:59.874Z,99552.72
2023-04-24T04:55:03.398Z,99541.41
2023-04-24T04:58:24.851Z,99546.66
2023-04-24T05:01:30.563Z,99555.88
2023-04-24T05:04:32.406Z,99554.06
2023-04-24T05:07:34.606Z,99561.16
2023-04-24T05:10:37.814Z,99567.53
2023-04-24T05:13:41.278Z,99572.16
2023-04-24T05:16:48.593Z,99569.59
2023-04-24T05:19:52.073Z,99570.16
2023-04-24T05:22:54.057Z,99580.34
2023-04-24T05:25:57.382Z,99580.91
2023-04-24T05:28:59.007Z,99582.41
2023-04-24T05:32:01.617Z,99574.56
2023-04-24T05:35:05.660Z,99579.47
2023-04-24T05:38:07.522Z,99589.00
2023-04-24T05:41:09.228Z,99587.44
2023-04-24T05:44:11.195Z,99595.81
2023-04-24T05:47:12.579Z,99597.69
2023-04-24T05:50:14.624Z,99590.25
2023-04-24T05:53:16.592Z,99593.41
2023-04-24T05:56:18.761Z,99597.44
2023-04-24T05:59:20.655Z,99604.75
2023-04-24T06:02:23.247Z,99604.97
2023-04-24T06:05:24.933Z,99610.38
2023-04-24T06:08:28.406Z,99610.69
2023-04-24T06:11:29.839Z,99616.69
2023-04-24T06:14:32.418Z,99619.50
2023-04-24T06:17:52.353Z,99617.72
2023-04-24T06:20:56.423Z,99618.88
2023-04-24T06:23:59.474Z,99627.09
2023-04-24T06:27:01.393Z,99624.59
2023-04-24T06:30:03.442Z,99624.41
2023-04-24T06:33:18.791Z,99630.44
2023-04-24T06:36:21.317Z,99628.66
2023-04-24T06:39:23.550Z,99641.72
2023-04-24T06:42:25.688Z,99642.56
2023-04-24T06:45:27.080Z,99634.25
2023-04-24T06:48:28.512Z,99630.50
2023-04-24T06:51:33.925Z,99630.91
2023-04-24T06:54:35.414Z,99638.34
2023-04-24T06:57:37.896Z,99635.53
2023-04-24T07:00:39.405Z,99642.22
2023-04-24T07:03:41.180Z,99641.66
2023-04-24T07:06:44.464Z,99638.97
2023-04-24T07:09:46.900Z,99653.94
2023-04-24T07:12:48.561Z,99645.78
2023-04-24T07:15:53.543Z,99651.00
2023-04-24T07:18:58.322Z,99661.59
2023-04-24T07:22:25.643Z,99675.63
2023-04-24T07:25:27.803Z,99693.00
2023-04-24T07:28:32.009Z,99694.28
2023-04-24T07:31:33.497Z,99688.50
2023-04-24T07:34:36.037Z,99693.22
2023-04-24T07:37:37.680Z,99680.91
2023-04-24T07:40:40.916Z,99693.00
2023-04-24T07:43:43.028Z,99700.50
2023-04-24T07:46:45.855Z,99709.19
2023-04-24T07:49:47.426Z,99715.19
2023-04-24T07:52:49.696Z,99725.19
2023-04-24T07:55:51.114Z,99729.03
2023-04-24T07:58:52.673Z,99723.22
2023-04-24T08:01:55.698Z,99726.28
2023-04-24T08:04:59.498Z,99725.69
2023-04-24T08:08:03.779Z,99731.56
2023-04-24T08:11:05.537Z,99726.44
2023-04-24T08:14:07.059Z,99728.94
2023-04-24T08:17:08.646Z,99736.53
2023-04-24T08:20:14.469Z,99737.38
2023-04-24T08:23:15.959Z,99745.09
2023-04-24T08:26:18.331Z,99744.56
2023-04-24T08:29:19.699Z,99740.59
2023-04-24T08:32:21.292Z,99737.63
2023-04-24T08:35:23.844Z,99748.63
2023-04-24T08:38:26.034Z,99757.69
2023-04-24T08:41:28.537Z,99747.13
2023-04-24T08:44:29.921Z,99764.84
2023-04-24T08:47:32.327Z,99759.84
2023-04-24T08:50:35.359Z,99760.00
2023-04-24T08:53:37.337Z,99761.97
2023-04-24T08:56:45.660Z,99758.94
2023-04-24T08:59:48.029Z,99764.22
2023-04-24T09:02:56.466Z,99764.84
2023-04-24T09:05:58.814Z,99765.59
2023-04-24T09:09:02.240Z,99783.09
2023-04-24T09:12:04.727Z,99786.56
2023-04-24T09:15:08.036Z,99794.84
2023-04-24T09:18:10.359Z,99793.75
2023-04-24T09:21:13.164Z,99791.59
2023-04-24T09:24:23.258Z,99801.13
2023-04-24T09:27:24.926Z,99791.72
2023-04-24T09:30:26.388Z,99793.00
2023-04-24T09:33:27.783Z,99807.88
2023-04-24T09:36:34.190Z,99806.66
2023-04-24T09:39:37.862Z,99801.31
2023-04-24T09:42:39.924Z,99798.28
2023-04-24T09:45:41.877Z,99808.38
2023-04-24T09:48:43.338Z,99799.34
2023-04-24T09:51:44.795Z,99805.75
2023-04-24T09:54:53.790Z,99810.00
2023-04-24T09:57:58.235Z,99819.81
2023-04-24T10:01:00.886Z,99833.56
2023-04-24T10:04:02.864Z,99833.56
2023-04-24T10:07:07.546Z,99830.66
2023-04-24T10:10:09.445Z,99827.66
2023-04-24T10:13:16.281Z,99826.69
2023-04-24T10:16:18.442Z,99835.78
2023-04-24T10:19:19.907Z,99834.25
2023-04-24T10:22:24.233Z,99833.81
2023-04-24T10:25:31.154Z,99839.31
2023-04-24T10:28:33.305Z,99857.06
2023-04-24T10:31:38.471Z,99860.78
2023-04-24T10:34:40.963Z,99875.56
2023-04-24T10:37:52.421Z,99868.63
2023-04-24T10:41:16.652Z,99878.25
2023-04-24T10:44:18.125Z,99889.25
2023-04-24T10:47:19.781Z,99888.75
2023-04-24T10:50:21.424Z,99880.06
2023-04-24T10:53:24.833Z,99889.94
2023-04-24T10:56:26.971Z,99883.88
2023-04-24T10:59:36.043Z,99885.03
2023-04-24T11:02:39.443Z,99884.97
2023-04-24T11:05:52.694Z,99875.97
2023-04-24T11:09:03.747Z,99876.97
2023-04-24T11:12:11.875Z,99885.00
2023-04-24T11:15:14.067Z,99882.78
2023-04-24T11:18:16.902Z,99885.44
2023-04-24T11:21:18.950Z,99885.06
2023-04-24T11:24:44.770Z,99884.59
2023-04-24T11:28:05.477Z,99901.47
2023-04-24T11:31:38.571Z,99897.50
2023-04-24T11:34:41.317Z,99893.91
2023-04-24T11:37:49.501Z,99893.84
2023-04-24T11:41:05.858Z,99887.53
2023-04-24T11:44:09.369Z,99893.06
2023-04-24T11:47:10.882Z,99897.59
2023-04-24T11:50:15.992Z,99895.38
2023-04-24T11:53:22.697Z,99905.03
2023-04-24T11:56:26.141Z,99907.41
2023-04-24T11:59:27.800Z,99899.19
2023-04-24T12:02:29.463Z,99914.94
2023-04-24T12:05:32.713Z,99912.31
2023-04-24T12:08:36.629Z,99904.97
2023-04-24T12:11:54.043Z,99904.69
2023-04-24T12:14:59.989Z,99907.88
2023-04-24T12:18:05.543Z,99924.06
2023-04-24T12:21:27.324Z,99917.06
2023-04-24T12:24:28.710Z,99908.38
2023-04-24T12:27:36.359Z,99925.00
2023-04-24T12:30:49.789Z,99912.22
2023-04-24T12:33:51.797Z,99919.34
2023-04-24T12:36:53.286Z,99917.34
2023-04-24T12:40:12.223Z,99918.19
2023-04-24T12:43:17.556Z,99906.66
2023-04-24T12:46:21.865Z,99902.63
2023-04-24T12:49:24.882Z,99913.84
2023-04-24T12:52:28.234Z,99921.44
2023-04-24T12:55:31.061Z,99910.56
2023-04-24T12:58:34.257Z,99904.66
2023-04-24T13:01:37.436Z,99898.84
2023-04-24T13:04:39.120Z,99902.91
2023-04-24T13:07:40.972Z,99908.94
2023-04-24T13:10:43.851Z,99901.28
2023-04-24T13:13:45.324Z,99898.16
2023-04-24T13:16:46.802Z,99890.97
2023-04-24T13:19:51.948Z,99899.78
2023-04-24T13:22:53.786Z,99895.56
2023-04-24T13:25:58.117Z,99898.41
2023-04-24T13:28:59.989Z,99883.78
2023-04-24T13:32:02.785Z,99892.50
2023-04-24T13:35:04.777Z,99898.59
2023-04-24T13:38:07.510Z,99882.69
2023-04-24T13:41:09.639Z,99889.69
2023-04-24T13:44:11.173Z,99883.00
2023-04-24T13:47:13.104Z,99882.72
2023-04-24T13:50:15.071Z,99879.50
2023-04-24T13:53:16.658Z,99880.72
2023-04-24T13:56:18.187Z,99892.81
2023-04-24T13:59:22.145Z,99894.81
2023-04-24T14:02:23.933Z,99881.66
2023-04-24T14:05:26.014Z,99895.59
2023-04-24T14:08:27.435Z,99892.06
2023-04-24T14:11:29.030Z,99889.25
2023-04-24T14:14:32.178Z,99885.06
2023-04-24T14:17:33.685Z,99893.78
2023-04-24T14:20:35.266Z,99889.00
2023-04-24T14:23:36.678Z,99888.81
2023-04-24T14:26:38.933Z,99880.22
2023-04-24T14:29:41.949Z,99881.63
2023-04-24T14:32:43.541Z,99886.50
2023-04-24T14:35:45.517Z,99875.03
2023-04-24T14:38:46.972Z,99873.25
2023-04-24T14:41:49.150Z,99890.56
2023-04-24T14:44:50.527Z,99883.53
2023-04-24T14:47:52.305Z,99881.66
2023-04-24T14:50:53.705Z,99884.03
2023-04-24T14:53:55.320Z,99894.50
2023-04-24T14:56:58.169Z,99922.19
2023-04-24T15:00:01.899Z,99917.66
2023-04-24T15:03:03.692Z,99917.25
2023-04-24T15:06:05.702Z,99907.88
2023-04-24T15:09:08.180Z,99907.19
2023-04-24T15:12:09.609Z,99906.88
2023-04-24T15:15:11.895Z,99899.75
2023-04-24T15:18:13.640Z,99901.56
2023-04-24T15:21:15.900Z,99910.03
2023-04-24T15:24:17.402Z,99912.94
2023-04-24T15:27:18.977Z,99910.88
2023-04-24T15:30:21.363Z,99909.59
2023-04-24T15:33:22.952Z,99918.94
2023-04-24T15:36:24.913Z,99921.81
2023-04-24T15:39:26.411Z,99919.16
2023-04-24T15:42:28.129Z,99918.88
2023-04-24T15:45:29.701Z,99918.84
2023-04-24T15:48:32.455Z,99918.28
2023-04-24T15:51:33.861Z,99926.81
2023-04-24T15:54:35.250Z,99918.88
2023-04-24T15:57:36.720Z,99924.56
2023-04-24T16:00:38.222Z,99935.31
2023-04-24T16:03:39.759Z,99935.59
2023-04-24T16:06:42.635Z,99940.69
2023-04-24T16:09:45.218Z,99933.78
2023-04-24T16:12:46.619Z,99927.53
2023-04-24T16:15:48.133Z,99938.94
2023-04-24T16:18:50.311Z,99926.09
2023-04-24T16:21:56.079Z,99922.31
2023-04-24T16:24:58.753Z,99915.53
2023-04-24T16:28:00.208Z,99918.50
2023-04-24T16:31:01.679Z,99916.41
2023-04-24T16:34:03.207Z,99914.78
2023-04-24T16:37:06.103Z,99916.13
2023-04-24T16:40:10.764Z,99920.41
2023-04-24T16:43:13.092Z,99918.75
2023-04-24T16:46:14.543Z,99916.97
2023-04-24T16:49:16.642Z,99917.75
2023-04-24T16:52:18.654Z,99918.22
2023-04-24T16:55:20.133Z,99905.06
2023-04-24T16:58:21.950Z,99905.75
2023-04-24T17:01:24.348Z,99922.25
2023-04-24T17:04:25.963Z,99914.97
2023-04-24T17:07:27.560Z,99919.44
2023-04-24T17:10:29.309Z,99924.13
2023-04-24T17:13:30.949Z,99915.94
2023-04-24T17:16:33.724Z,99921.16
2023-04-24T17:19:35.482Z,99923.81
2023-04-24T17:22:36.905Z,99931.03
2023-04-24T17:25:38.332Z,99926.38
2023-04-24T17:28:39.807Z,99936.84
2023-04-24T17:31:41.343Z,99942.28
2023-04-24T17:34:42.775Z,99932.53
2023-04-24T17:37:45.220Z,99934.47
2023-04-24T17:40:46.938Z,99935.41
2023-04-24T17:43:48.310Z,99941.75
2023-04-24T17:46:49.800Z,99941.41
2023-04-24T17:49:52.096Z,99930.78
2023-04-24T17:52:53.496Z,99934.56
2023-04-24T17:55:57.698Z,99932.78
2023-04-24T17:58:59.131Z,99934.06
2023-04-24T18:02:01.200Z,99936.53
2023-04-24T18:05:02.716Z,99929.28
2023-04-24T18:08:04.683Z,99924.88
2023-04-24T18:11:07.023Z,99930.16
2023-04-24T18:14:09.079Z,99936.94
2023-04-24T18:17:10.582Z,99935.78
2023-04-24T18:20:13.667Z,99935.91
2023-04-24T18:23:15.524Z,99944.78
2023-04-24T18:26:18.593Z,99936.66
2023-04-24T18:29:21.349Z,99940.03
2023-04-24T18:32:24.172Z,99943.50
2023-04-24T18:35:25.911Z,99943.13
2023-04-24T18:38:27.673Z,99951.13
2023-04-24T18:41:29.059Z,99955.44
2023-04-24T18:44:31.979Z,99952.94
2023-04-24T18:47:35.199Z,99960.34
2023-04-24T18:50:38.768Z,99954.50
2023-04-24T18:53:40.373Z,99952.94
2023-04-24T18:56:41.859Z,99962.03
2023-04-24T18:59:43.353Z,99970.63
2023-04-24T19:02:44.866Z,99963.34
2023-04-24T19:05:46.661Z,99969.34
2023-04-24T19:08:50.574Z,99976.19
2023-04-24T19:11:52.136Z,99979.06
2023-04-24T19:14:55.917Z,99981.06
2023-04-24T19:17:57.557Z,99980.84
2023-04-24T19:20:59.606Z,99988.97
2023-04-24T19:24:01.269Z,99992.25
2023-04-24T19:27:03.255Z,99995.72
2023-04-24T19:30:06.172Z,100001.31
2023-04-24T19:33:07.686Z,100007.31
2023-04-24T19:36:10.409Z,100008.44
2023-04-24T19:39:12.547Z,100019.88
2023-04-24T19:42:14.000Z,100018.22
2023-04-24T19:45:16.169Z,100023.75
2023-04-24T19:48:18.520Z,100008.97
2023-04-24T19:51:20.070Z,100012.66
2023-04-24T19:54:21.464Z,100019.53
2023-04-24T19:57:22.875Z,100004.34
2023-04-24T20:00:24.491Z,100008.81
2023-04-24T20:06:34.173Z,100006.78
2023-04-24T20:09:35.608Z,100008.44
2023-04-24T20:12:37.024Z,100006.91
2023-04-24T20:15:38.437Z,100014.22
2023-04-24T20:18:39.895Z,100011.66
2023-04-24T20:21:41.263Z,100014.81
2023-04-24T20:24:43.593Z,100018.50
2023-04-24T20:27:45.550Z,100010.72
2023-04-24T20:30:47.005Z,100009.91
2023-04-24T20:33:48.410Z,100003.31
2023-04-24T20:36:50.103Z,100008.03
2023-04-24T20:39:51.919Z,100009.88
2023-04-24T20:42:53.381Z,100005.63
2023-04-24T20:45:55.677Z,99997.47
2023-04-24T20:48:57.388Z,99995.50
2023-04-24T20:51:59.165Z,99995.41
2023-04-24T20:55:01.173Z,99988.84
2023-04-24T20:58:03.296Z,99994.97
2023-04-24T21:01:04.952Z,99987.97
2023-04-24T21:04:06.400Z,99992.88
2023-04-24T21:07:09.510Z,99987.59
2023-04-24T21:10:12.687Z,99987.50
2023-04-24T21:13:14.114Z,99992.56
2023-04-24T21:16:15.756Z,99987.25
2023-04-24T21:19:17.205Z,99977.81
2023-04-24T21:22:18.722Z,99981.06
2023-04-24T21:25:20.095Z,99974.16
2023-04-24T21:28:21.498Z,99975.13
2023-04-24T21:31:22.936Z,99962.25
2023-04-24T21:34:24.450Z,99962.06
2023-04-24T21:37:29.008Z,99965.75
2023-04-24T21:40:30.395Z,99972.34
2023-04-24T21:43:43.416Z,99975.63
2023-04-24T21:46:46.483Z,99966.09
2023-04-24T21:49:47.921Z,99960.06
2023-04-24T21:52:49.486Z,99952.06
2023-04-24T21:55:50.995Z,99957.03
2023-04-24T21:58:52.720Z,99957.94
2023-04-24T22:01:54.220Z,99965.78
2023-04-24T22:04:56.351Z,99964.41
2023-04-24T22:07:59.279Z,99970.47
2023-04-24T22:11:01.217Z,99969.53
2023-04-24T22:14:02.627Z,99964.31
2023-04-24T22:17:04.613Z,99954.78
2023-04-24T22:20:07.361Z,99950.94
2023-04-24T22:23:08.826Z,99946.22
2023-04-24T22:26:10.371Z,99946.44
2023-04-24T22:29:12.745Z,99952.34
2023-04-24T22:32:14.120Z,99950.38
2023-04-24T22:35:16.007Z,99953.00
2023-04-24T22:38:17.466Z,99949.63
2023-04-24T22:41:18.955Z,99944.47
2023-04-24T22:44:21.002Z,99943.00
2023-04-24T22:47:22.482Z,99938.66
2023-04-24T22:50:23.930Z,99930.31
2023-04-24T22:53:25.357Z,99926.13
2023-04-24T22:56:26.933Z,99927.19
2023-04-24T22:59:28.719Z,99927.34
2023-04-24T23:02:30.346Z,99932.09
2023-04-24T23:05:31.872Z,99930.47
2023-04-24T23:08:33.270Z,99921.63
2023-04-24T23:11:34.710Z,99929.53
2023-04-24T23:14:36.392Z,99928.53
2023-04-24T23:17:37.882Z,99922.31
2023-04-24T23:20:39.711Z,99924.69
2023-04-24T23:23:41.187Z,99919.44
2023-04-24T23:26:42.683Z,99919.59
2023-04-24T23:29:44.105Z,99923.09
2023-04-24T23:32:45.574Z,99926.63
2023-04-24T23:35:47.304Z,99919.53
2023-04-24T23:38:50.681Z,99922.31
2023-04-24T23:41:53.478Z,99919.13
2023-04-24T23:44:54.894Z,99917.28
2023-04-24T23:47:56.715Z,99913.84
2023-04-24T23:50:58.266Z,99919.50
2023-04-24T23:54:00.253Z,99919.25
2023-04-24T23:57:02.344Z,99916.66
